sensor_id;sensor_type;location;lat;lon;timestamp;pressure;altitude;pressure_sealevel;temperature;humidity
20368;BME280;10343;52.402;9.796;2023-03-18T00:01:06;100230.63;;;21.80;34.84
20368;BME280;10343;52.402;9.796;2023-03-18T00:03:35;100235.81;;;21.83;35.28
20368;BME280;10343;52.402;9.796;2023-03-18T00:06:06;100236.88;;;21.45;35.95
20368;BME280;10343;52.402;9.796;2023-03-18T00:08:34;100225.25;;;21.92;36.41
20368;BME280;10343;52.402;9.796;2023-03-18T00:11:03;100231.22;;;21.73;36.79
20368;BME280;10343;52.402;9.796;2023-03-18T00:13:33;100233.78;;;21.38;38.19
20368;BME280;10343;52.402;9.796;2023-03-18T00:16:03;100224.91;;;21.96;38.00
20368;BME280;10343;52.402;9.796;2023-03-18T00:18:36;100228.78;;;21.45;38.41
20368;BME280;10343;52.402;9.796;2023-03-18T00:21:05;100224.06;;;21.96;38.44
20368;BME280;10343;52.402;9.796;2023-03-18T00:23:35;100232.59;;;21.89;38.71
20368;BME280;10343;52.402;9.796;2023-03-18T00:26:04;100227.78;;;21.82;39.11
20368;BME280;10343;52.402;9.796;2023-03-18T00:28:37;100226.16;;;21.57;38.93
20368;BME280;10343;52.402;9.796;2023-03-18T00:31:07;100228.13;;;21.42;39.09
20368;BME280;10343;52.402;9.796;2023-03-18T00:33:38;100227.47;;;21.02;40.15
20368;BME280;10343;52.402;9.796;2023-03-18T00:36:09;100228.72;;;21.58;39.33
20368;BME280;10343;52.402;9.796;2023-03-18T00:38:40;100233.78;;;21.38;39.02
20368;BME280;10343;52.402;9.796;2023-03-18T00:41:09;100234.28;;;21.44;39.16
20368;BME280;10343;52.402;9.796;2023-03-18T00:43:43;100242.63;;;21.41;39.38
20368;BME280;10343;52.402;9.796;2023-03-18T00:46:21;100246.84;;;21.32;39.31
20368;BME280;10343;52.402;9.796;2023-03-18T00:48:53;100247.09;;;21.29;39.54
20368;BME280;10343;52.402;9.796;2023-03-18T00:51:23;100257.69;;;21.43;38.95
20368;BME280;10343;52.402;9.796;2023-03-18T00:53:54;100256.09;;;21.16;39.01
20368;BME280;10343;52.402;9.796;2023-03-18T00:56:25;100256.47;;;21.47;38.82
20368;BME280;10343;52.402;9.796;2023-03-18T00:58:57;100266.88;;;21.65;38.65
20368;BME280;10343;52.402;9.796;2023-03-18T01:01:28;100264.69;;;21.70;38.58
20368;BME280;10343;52.402;9.796;2023-03-18T01:03:59;100265.06;;;22.12;38.17
20368;BME280;10343;52.402;9.796;2023-03-18T01:06:29;100271.81;;;21.71;38.05
20368;BME280;10343;52.402;9.796;2023-03-18T01:08:58;100272.28;;;21.65;38.38
20368;BME280;10343;52.402;9.796;2023-03-18T01:11:27;100274.69;;;21.92;38.02
20368;BME280;10343;52.402;9.796;2023-03-18T01:13:56;100271.63;;;21.97;37.05
20368;BME280;10343;52.402;9.796;2023-03-18T01:16:26;100263.22;;;22.24;36.50
20368;BME280;10343;52.402;9.796;2023-03-18T01:18:55;100265.78;;;22.26;36.61
20368;BME280;10343;52.402;9.796;2023-03-18T01:21:25;100255.88;;;22.49;36.84
20368;BME280;10343;52.402;9.796;2023-03-18T01:23:57;100253.06;;;22.50;37.06
20368;BME280;10343;52.402;9.796;2023-03-18T01:26:28;100256.25;;;22.44;36.54
20368;BME280;10343;52.402;9.796;2023-03-18T01:28:58;100258.84;;;22.34;37.09
20368;BME280;10343;52.402;9.796;2023-03-18T01:31:28;100261.59;;;22.10;37.71
20368;BME280;10343;52.402;9.796;2023-03-18T01:34:02;100260.03;;;22.30;37.67
20368;BME280;10343;52.402;9.796;2023-03-18T01:36:42;100267.25;;;22.18;38.05
20368;BME280;10343;52.402;9.796;2023-03-18T01:39:10;100266.53;;;22.16;37.72
20368;BME280;10343;52.402;9.796;2023-03-18T01:41:38;100265.41;;;22.19;37.74
20368;BME280;10343;52.402;9.796;2023-03-18T01:44:12;100266.56;;;22.39;37.80
20368;BME280;10343;52.402;9.796;2023-03-18T01:46:46;100259.44;;;22.49;37.58
20368;BME280;10343;52.402;9.796;2023-03-18T01:49:19;100270.50;;;22.46;38.72
20368;BME280;10343;52.402;9.796;2023-03-18T01:51:52;100272.94;;;22.49;39.36
20368;BME280;10343;52.402;9.796;2023-03-18T01:54:25;100268.47;;;22.14;38.36
20368;BME280;10343;52.402;9.796;2023-03-18T01:56:54;100262.56;;;22.09;38.39
20368;BME280;10343;52.402;9.796;2023-03-18T01:59:25;100249.94;;;22.10;38.17
20368;BME280;10343;52.402;9.796;2023-03-18T02:01:57;100257.25;;;22.43;37.96
20368;BME280;10343;52.402;9.796;2023-03-18T02:04:34;100259.69;;;22.35;38.38
20368;BME280;10343;52.402;9.796;2023-03-18T02:07:05;100257.91;;;21.53;40.48
20368;BME280;10343;52.402;9.796;2023-03-18T02:09:34;100252.59;;;21.27;40.72
20368;BME280;10343;52.402;9.796;2023-03-18T02:12:05;100252.63;;;21.14;40.83
20368;BME280;10343;52.402;9.796;2023-03-18T02:14:34;100259.66;;;20.67;41.81
20368;BME280;10343;52.402;9.796;2023-03-18T02:17:08;100266.59;;;20.58;42.71
20368;BME280;10343;52.402;9.796;2023-03-18T02:22:23;100258.50;;;21.57;42.57
20368;BME280;10343;52.402;9.796;2023-03-18T02:25:08;100269.22;;;21.45;42.67
20368;BME280;10343;52.402;9.796;2023-03-18T02:27:43;100268.03;;;21.49;42.51
20368;BME280;10343;52.402;9.796;2023-03-18T02:30:17;100266.59;;;21.57;42.19
20368;BME280;10343;52.402;9.796;2023-03-18T02:32:49;100262.97;;;21.69;42.09
20368;BME280;10343;52.402;9.796;2023-03-18T02:35:19;100257.56;;;21.69;42.51
20368;BME280;10343;52.402;9.796;2023-03-18T02:37:50;100265.69;;;21.80;42.05
20368;BME280;10343;52.402;9.796;2023-03-18T02:40:24;100266.19;;;21.74;43.10
20368;BME280;10343;52.402;9.796;2023-03-18T02:42:56;100262.03;;;21.81;43.28
20368;BME280;10343;52.402;9.796;2023-03-18T02:45:46;100269.56;;;21.65;43.48
20368;BME280;10343;52.402;9.796;2023-03-18T02:48:19;100276.63;;;21.90;42.51
20368;BME280;10343;52.402;9.796;2023-03-18T02:50:49;100276.53;;;21.56;43.63
20368;BME280;10343;52.402;9.796;2023-03-18T02:53:18;100283.91;;;22.01;43.30
20368;BME280;10343;52.402;9.796;2023-03-18T02:55:46;100291.44;;;21.73;44.28
20368;BME280;10343;52.402;9.796;2023-03-18T02:58:22;100283.91;;;21.41;50.35
20368;BME280;10343;52.402;9.796;2023-03-18T03:00:57;100285.25;;;20.48;53.88
20368;BME280;10343;52.402;9.796;2023-03-18T03:03:30;100271.28;;;22.01;63.51
20368;BME280;10343;52.402;9.796;2023-03-18T03:06:00;100290.72;;;20.08;62.32
20368;BME280;10343;52.402;9.796;2023-03-18T03:08:30;100288.91;;;20.34;60.06
20368;BME280;10343;52.402;9.796;2023-03-18T03:11:04;100275.84;;;22.12;58.49
20368;BME280;10343;52.402;9.796;2023-03-18T03:13:43;100296.28;;;21.57;57.96
20368;BME280;10343;52.402;9.796;2023-03-18T03:16:14;100291.69;;;23.19;52.29
20368;BME280;10343;52.402;9.796;2023-03-18T03:18:44;100286.94;;;22.54;53.32
20368;BME280;10343;52.402;9.796;2023-03-18T03:21:13;100292.72;;;24.87;51.33
20368;BME280;10343;52.402;9.796;2023-03-18T03:23:44;100295.31;;;24.57;50.78
20368;BME280;10343;52.402;9.796;2023-03-18T03:26:14;100301.66;;;22.62;50.09
20368;BME280;10343;52.402;9.796;2023-03-18T03:28:44;100315.59;;;22.10;52.57
20368;BME280;10343;52.402;9.796;2023-03-18T03:31:12;100310.03;;;22.47;51.57
20368;BME280;10343;52.402;9.796;2023-03-18T03:33:41;100318.44;;;22.31;52.11
20368;BME280;10343;52.402;9.796;2023-03-18T03:36:11;100308.63;;;23.10;53.49
20368;BME280;10343;52.402;9.796;2023-03-18T03:38:40;100306.81;;;22.42;52.49
20368;BME280;10343;52.402;9.796;2023-03-18T03:41:10;100309.66;;;22.75;53.86
20368;BME280;10343;52.402;9.796;2023-03-18T03:43:39;100303.63;;;23.05;53.51
20368;BME280;10343;52.402;9.796;2023-03-18T03:46:09;100297.38;;;22.82;54.38
20368;BME280;10343;52.402;9.796;2023-03-18T03:48:38;100297.06;;;21.70;53.76
20368;BME280;10343;52.402;9.796;2023-03-18T03:51:11;100295.66;;;21.53;56.23
20368;BME280;10343;52.402;9.796;2023-03-18T03:53:40;100298.56;;;21.13;57.04
20368;BME280;10343;52.402;9.796;2023-03-18T03:56:10;100303.16;;;21.96;54.62
20368;BME280;10343;52.402;9.796;2023-03-18T03:58:39;100309.69;;;21.45;55.41
20368;BME280;10343;52.402;9.796;2023-03-18T04:01:09;100312.09;;;21.37;55.69
20368;BME280;10343;52.402;9.796;2023-03-18T04:03:38;100309.47;;;21.11;56.72
20368;BME280;10343;52.402;9.796;2023-03-18T04:06:07;100314.41;;;21.54;56.49
20368;BME280;10343;52.402;9.796;2023-03-18T04:08:44;100319.63;;;21.08;57.90
20368;BME280;10343;52.402;9.796;2023-03-18T04:11:12;100326.81;;;20.83;58.73
20368;BME280;10343;52.402;9.796;2023-03-18T04:13:42;100332.28;;;20.56;59.63
20368;BME280;10343;52.402;9.796;2023-03-18T04:16:13;100325.28;;;19.74;61.58
20368;BME280;10343;52.402;9.796;2023-03-18T04:18:42;100316.72;;;19.82;60.56
20368;BME280;10343;52.402;9.796;2023-03-18T04:21:13;100311.25;;;20.86;57.58
20368;BME280;10343;52.402;9.796;2023-03-18T04:23:47;100311.56;;;20.95;57.52
20368;BME280;10343;52.402;9.796;2023-03-18T04:26:15;100314.13;;;21.09;57.00
20368;BME280;10343;52.402;9.796;2023-03-18T04:28:47;100319.81;;;20.42;58.84
20368;BME280;10343;52.402;9.796;2023-03-18T04:31:17;100325.50;;;20.24;59.71
20368;BME280;10343;52.402;9.796;2023-03-18T04:33:46;100315.88;;;21.10;58.12
20368;BME280;10343;52.402;9.796;2023-03-18T04:36:14;100319.78;;;20.03;60.68
20368;BME280;10343;52.402;9.796;2023-03-18T04:38:44;100324.50;;;19.87;60.38
20368;BME280;10343;52.402;9.796;2023-03-18T04:41:13;100323.28;;;19.50;62.15
20368;BME280;10343;52.402;9.796;2023-03-18T04:43:42;100328.34;;;19.82;60.62
20368;BME280;10343;52.402;9.796;2023-03-18T04:46:11;100334.63;;;19.41;61.63
20368;BME280;10343;52.402;9.796;2023-03-18T04:48:43;100332.94;;;19.26;62.08
20368;BME280;10343;52.402;9.796;2023-03-18T04:51:11;100332.00;;;18.69;65.35
20368;BME280;10343;52.402;9.796;2023-03-18T04:53:42;100330.91;;;18.88;63.19
20368;BME280;10343;52.402;9.796;2023-03-18T04:56:12;100331.72;;;19.17;62.17
20368;BME280;10343;52.402;9.796;2023-03-18T04:58:46;100340.03;;;19.27;61.15
20368;BME280;10343;52.402;9.796;2023-03-18T05:01:20;100334.41;;;20.12;61.34
20368;BME280;10343;52.402;9.796;2023-03-18T05:03:50;100331.41;;;19.76;60.43
20368;BME280;10343;52.402;9.796;2023-03-18T05:06:22;100332.38;;;19.21;62.36
20368;BME280;10343;52.402;9.796;2023-03-18T05:08:58;100328.19;;;19.02;62.90
20368;BME280;10343;52.402;9.796;2023-03-18T05:11:31;100331.28;;;19.38;60.04
20368;BME280;10343;52.402;9.796;2023-03-18T05:14:09;100334.50;;;19.15;61.65
20368;BME280;10343;52.402;9.796;2023-03-18T05:16:44;100323.56;;;19.73;59.48
20368;BME280;10343;52.402;9.796;2023-03-18T05:19:15;100323.66;;;19.44;58.42
20368;BME280;10343;52.402;9.796;2023-03-18T05:21:55;100322.41;;;19.50;60.33
20368;BME280;10343;52.402;9.796;2023-03-18T05:24:24;100328.66;;;19.50;59.01
20368;BME280;10343;52.402;9.796;2023-03-18T05:26:53;100330.44;;;18.95;62.28
20368;BME280;10343;52.402;9.796;2023-03-18T05:29:26;100326.75;;;18.67;61.46
20368;BME280;10343;52.402;9.796;2023-03-18T05:32:09;100346.53;;;18.07;64.51
20368;BME280;10343;52.402;9.796;2023-03-18T05:34:40;100332.63;;;18.89;61.74
20368;BME280;10343;52.402;9.796;2023-03-18T05:37:12;100336.63;;;19.10;60.71
20368;BME280;10343;52.402;9.796;2023-03-18T05:39:46;100336.72;;;19.50;59.96
20368;BME280;10343;52.402;9.796;2023-03-18T05:42:18;100348.25;;;18.82;60.93
20368;BME280;10343;52.402;9.796;2023-03-18T05:44:46;100354.91;;;18.31;62.77
20368;BME280;10343;52.402;9.796;2023-03-18T05:47:19;100347.97;;;19.01;62.92
20368;BME280;10343;52.402;9.796;2023-03-18T05:50:06;100348.13;;;18.55;62.82
20368;BME280;10343;52.402;9.796;2023-03-18T05:52:36;100352.31;;;19.58;60.07
20368;BME280;10343;52.402;9.796;2023-03-18T05:55:12;100348.50;;;19.21;59.76
20368;BME280;10343;52.402;9.796;2023-03-18T05:57:43;100343.25;;;19.05;60.15
20368;BME280;10343;52.402;9.796;2023-03-18T06:00:13;100354.09;;;19.17;61.27
20368;BME280;10343;52.402;9.796;2023-03-18T06:02:47;100359.06;;;19.24;61.33
20368;BME280;10343;52.402;9.796;2023-03-18T06:05:17;100357.81;;;18.57;61.24
20368;BME280;10343;52.402;9.796;2023-03-18T06:07:47;100368.69;;;19.13;61.93
20368;BME280;10343;52.402;9.796;2023-03-18T06:10:16;100368.00;;;18.81;61.46
20368;BME280;10343;52.402;9.796;2023-03-18T06:12:47;100372.53;;;19.37;60.55
20368;BME280;10343;52.402;9.796;2023-03-18T06:15:17;100365.84;;;19.71;59.95
20368;BME280;10343;52.402;9.796;2023-03-18T06:17:47;100363.31;;;19.68;59.03
20368;BME280;10343;52.402;9.796;2023-03-18T06:20:18;100360.47;;;20.11;55.24
20368;BME280;10343;52.402;9.796;2023-03-18T06:22:47;100361.31;;;19.99;55.94
20368;BME280;10343;52.402;9.796;2023-03-18T06:25:20;100364.94;;;19.43;57.36
20368;BME280;10343;52.402;9.796;2023-03-18T06:27:51;100358.78;;;20.36;56.21
20368;BME280;10343;52.402;9.796;2023-03-18T06:30:23;100365.97;;;20.35;56.15
20368;BME280;10343;52.402;9.796;2023-03-18T06:32:53;100359.47;;;19.87;55.02
20368;BME280;10343;52.402;9.796;2023-03-18T06:35:26;100367.19;;;20.44;55.55
20368;BME280;10343;52.402;9.796;2023-03-18T06:37:56;100365.66;;;19.60;56.30
20368;BME280;10343;52.402;9.796;2023-03-18T06:40:25;100381.03;;;20.12;55.27
20368;BME280;10343;52.402;9.796;2023-03-18T06:43:02;100374.69;;;20.13;56.84
20368;BME280;10343;52.402;9.796;2023-03-18T06:46:01;100386.34;;;19.17;57.34
20368;BME280;10343;52.402;9.796;2023-03-18T06:48:33;100396.16;;;19.73;56.22
20368;BME280;10343;52.402;9.796;2023-03-18T06:51:09;100395.22;;;19.74;55.95
20368;BME280;10343;52.402;9.796;2023-03-18T06:53:41;100399.44;;;19.64;56.45
20368;BME280;10343;52.402;9.796;2023-03-18T06:56:11;100404.00;;;18.93;58.22
20368;BME280;10343;52.402;9.796;2023-03-18T06:58:52;100402.63;;;19.14;58.10
20368;BME280;10343;52.402;9.796;2023-03-18T07:01:22;100413.09;;;18.31;61.94
20368;BME280;10343;52.402;9.796;2023-03-18T07:03:53;100416.53;;;18.33;62.23
20368;BME280;10343;52.402;9.796;2023-03-18T07:06:24;100423.31;;;18.69;60.09
20368;BME280;10343;52.402;9.796;2023-03-18T07:08:56;100415.19;;;19.70;58.14
20368;BME280;10343;52.402;9.796;2023-03-18T07:11:28;100416.09;;;19.00;58.48
20368;BME280;10343;52.402;9.796;2023-03-18T07:14:02;100407.16;;;19.56;58.75
20368;BME280;10343;52.402;9.796;2023-03-18T07:16:34;100415.66;;;19.35;57.56
20368;BME280;10343;52.402;9.796;2023-03-18T07:19:03;100420.56;;;19.70;57.35
20368;BME280;10343;52.402;9.796;2023-03-18T07:21:35;100420.69;;;19.96;56.96
20368;BME280;10343;52.402;9.796;2023-03-18T07:24:07;100422.63;;;19.79;55.65
20368;BME280;10343;52.402;9.796;2023-03-18T07:27:03;100426.09;;;20.36;54.03
20368;BME280;10343;52.402;9.796;2023-03-18T07:29:38;100438.56;;;19.97;55.52
20368;BME280;10343;52.402;9.796;2023-03-18T07:32:24;100438.03;;;20.32;57.26
20368;BME280;10343;52.402;9.796;2023-03-18T07:35:04;100447.13;;;20.57;54.92
20368;BME280;10343;52.402;9.796;2023-03-18T07:37:42;100446.59;;;20.11;54.73
20368;BME280;10343;52.402;9.796;2023-03-18T07:40:22;100447.47;;;20.25;56.16
20368;BME280;10343;52.402;9.796;2023-03-18T07:42:59;100459.59;;;20.58;54.07
20368;BME280;10343;52.402;9.796;2023-03-18T07:45:52;100461.81;;;21.04;52.52
20368;BME280;10343;52.402;9.796;2023-03-18T07:48:51;100470.34;;;20.98;52.36
20368;BME280;10343;52.402;9.796;2023-03-18T07:51:19;100466.59;;;20.34;54.67
20368;BME280;10343;52.402;9.796;2023-03-18T07:53:47;100468.50;;;20.73;53.77
20368;BME280;10343;52.402;9.796;2023-03-18T07:56:16;100469.91;;;20.51;54.68
20368;BME280;10343;52.402;9.796;2023-03-18T07:58:44;100465.81;;;20.45;54.99
20368;BME280;10343;52.402;9.796;2023-03-18T08:01:12;100463.13;;;20.05;56.39
20368;BME280;10343;52.402;9.796;2023-03-18T08:03:42;100474.41;;;19.12;58.67
20368;BME280;10343;52.402;9.796;2023-03-18T08:06:11;100469.81;;;19.29;59.52
20368;BME280;10343;52.402;9.796;2023-03-18T08:08:41;100468.56;;;19.76;58.30
20368;BME280;10343;52.402;9.796;2023-03-18T08:11:10;100476.81;;;19.88;57.50
20368;BME280;10343;52.402;9.796;2023-03-18T08:13:38;100479.00;;;18.96;59.82
20368;BME280;10343;52.402;9.796;2023-03-18T08:16:07;100468.31;;;20.08;59.21
20368;BME280;10343;52.402;9.796;2023-03-18T08:19:16;100473.31;;;20.27;56.23
20368;BME280;10343;52.402;9.796;2023-03-18T08:22:32;100482.44;;;19.70;57.48
20368;BME280;10343;52.402;9.796;2023-03-18T08:25:09;100486.84;;;19.71;58.43
20368;BME280;10343;52.402;9.796;2023-03-18T08:27:39;100483.81;;;19.63;57.83
20368;BME280;10343;52.402;9.796;2023-03-18T08:30:12;100489.75;;;19.39;61.11
20368;BME280;10343;52.402;9.796;2023-03-18T08:32:43;100493.03;;;19.30;61.13
20368;BME280;10343;52.402;9.796;2023-03-18T08:35:12;100481.59;;;19.97;61.84
20368;BME280;10343;52.402;9.796;2023-03-18T08:37:53;100485.94;;;20.27;59.54
20368;BME280;10343;52.402;9.796;2023-03-18T08:40:22;100483.78;;;21.24;55.20
20368;BME280;10343;52.402;9.796;2023-03-18T08:42:57;100488.97;;;21.52;53.43
20368;BME280;10343;52.402;9.796;2023-03-18T08:45:25;100496.22;;;20.60;55.84
20368;BME280;10343;52.402;9.796;2023-03-18T08:47:54;100492.63;;;21.64;54.71
20368;BME280;10343;52.402;9.796;2023-03-18T08:50:22;100501.69;;;21.25;53.23
20368;BME280;10343;52.402;9.796;2023-03-18T08:52:58;100495.03;;;21.17;53.42
20368;BME280;10343;52.402;9.796;2023-03-18T08:55:28;100493.84;;;19.88;57.24
20368;BME280;10343;52.402;9.796;2023-03-18T08:58:00;100499.94;;;21.62;54.80
20368;BME280;10343;52.402;9.796;2023-03-18T09:00:30;100496.34;;;21.75;52.46
20368;BME280;10343;52.402;9.796;2023-03-18T09:03:01;100499.75;;;21.40;53.25
20368;BME280;10343;52.402;9.796;2023-03-18T09:05:33;100502.31;;;22.52;51.20
20368;BME280;10343;52.402;9.796;2023-03-18T09:08:13;100505.44;;;21.98;50.87
20368;BME280;10343;52.402;9.796;2023-03-18T09:11:10;100507.03;;;22.37;53.23
20368;BME280;10343;52.402;9.796;2023-03-18T09:13:39;100501.22;;;22.31;50.67
20368;BME280;10343;52.402;9.796;2023-03-18T09:16:13;100506.91;;;21.78;50.18
20368;BME280;10343;52.402;9.796;2023-03-18T09:21:43;100508.19;;;21.09;52.69
20368;BME280;10343;52.402;9.796;2023-03-18T09:24:42;100520.97;;;22.55;51.01
20368;BME280;10343;52.402;9.796;2023-03-18T09:27:14;100506.69;;;22.18;49.80
20368;BME280;10343;52.402;9.796;2023-03-18T09:30:00;100511.34;;;23.34;49.11
20368;BME280;10343;52.402;9.796;2023-03-18T09:35:48;100513.84;;;22.54;48.36
20368;BME280;10343;52.402;9.796;2023-03-18T09:38:51;100518.28;;;23.02;48.19
20368;BME280;10343;52.402;9.796;2023-03-18T09:41:53;100522.00;;;22.17;49.01
20368;BME280;10343;52.402;9.796;2023-03-18T09:44:30;100520.09;;;22.90;47.27
20368;BME280;10343;52.402;9.796;2023-03-18T09:47:19;100522.00;;;21.80;49.89
20368;BME280;10343;52.402;9.796;2023-03-18T09:50:04;100513.31;;;22.85;47.06
20368;BME280;10343;52.402;9.796;2023-03-18T09:52:40;100517.47;;;23.70;46.27
20368;BME280;10343;52.402;9.796;2023-03-18T09:55:20;100525.28;;;25.04;45.33
20368;BME280;10343;52.402;9.796;2023-03-18T09:58:46;100527.03;;;24.08;44.25
20368;BME280;10343;52.402;9.796;2023-03-18T10:01:26;100519.41;;;24.02;45.37
20368;BME280;10343;52.402;9.796;2023-03-18T10:03:59;100522.03;;;24.68;44.88
20368;BME280;10343;52.402;9.796;2023-03-18T10:06:30;100521.41;;;24.00;45.19
20368;BME280;10343;52.402;9.796;2023-03-18T10:09:19;100524.34;;;23.85;45.05
20368;BME280;10343;52.402;9.796;2023-03-18T10:12:06;100526.59;;;23.46;45.25
20368;BME280;10343;52.402;9.796;2023-03-18T10:14:45;100527.72;;;24.21;44.08
20368;BME280;10343;52.402;9.796;2023-03-18T10:17:18;100540.50;;;23.98;43.97
20368;BME280;10343;52.402;9.796;2023-03-18T10:20:32;100540.59;;;23.74;44.31
20368;BME280;10343;52.402;9.796;2023-03-18T10:23:12;100541.44;;;23.74;43.86
20368;BME280;10343;52.402;9.796;2023-03-18T10:26:13;100534.81;;;23.22;45.30
20368;BME280;10343;52.402;9.796;2023-03-18T10:29:20;100547.09;;;22.79;46.20
20368;BME280;10343;52.402;9.796;2023-03-18T10:32:00;100533.56;;;23.15;45.63
20368;BME280;10343;52.402;9.796;2023-03-18T10:34:40;100551.63;;;22.67;46.22
20368;BME280;10343;52.402;9.796;2023-03-18T10:37:18;100536.06;;;24.30;42.70
20368;BME280;10343;52.402;9.796;2023-03-18T10:39:51;100543.78;;;24.02;43.14
20368;BME280;10343;52.402;9.796;2023-03-18T10:42:23;100542.22;;;23.65;43.19
20368;BME280;10343;52.402;9.796;2023-03-18T10:44:53;100542.81;;;23.57;44.67
20368;BME280;10343;52.402;9.796;2023-03-18T10:47:27;100538.13;;;23.82;43.63
20368;BME280;10343;52.402;9.796;2023-03-18T10:50:01;100545.53;;;23.91;43.45
20368;BME280;10343;52.402;9.796;2023-03-18T10:52:34;100546.00;;;23.74;43.48
20368;BME280;10343;52.402;9.796;2023-03-18T10:55:12;100549.97;;;23.58;43.20
20368;BME280;10343;52.402;9.796;2023-03-18T10:57:43;100547.72;;;23.98;43.54
20368;BME280;10343;52.402;9.796;2023-03-18T11:00:25;100546.63;;;24.00;44.03
20368;BME280;10343;52.402;9.796;2023-03-18T11:03:34;100549.94;;;24.04;41.95
20368;BME280;10343;52.402;9.796;2023-03-18T11:06:06;100550.41;;;24.20;42.27
20368;BME280;10343;52.402;9.796;2023-03-18T11:08:40;100547.88;;;24.40;42.19
20368;BME280;10343;52.402;9.796;2023-03-18T11:11:19;100548.47;;;24.76;42.27
20368;BME280;10343;52.402;9.796;2023-03-18T11:13:51;100546.16;;;24.39;42.68
20368;BME280;10343;52.402;9.796;2023-03-18T11:16:25;100555.22;;;23.37;43.10
20368;BME280;10343;52.402;9.796;2023-03-18T11:18:56;100550.69;;;23.72;42.89
20368;BME280;10343;52.402;9.796;2023-03-18T11:21:26;100547.16;;;24.27;41.31
20368;BME280;10343;52.402;9.796;2023-03-18T11:23:56;100557.59;;;23.99;43.10
20368;BME280;10343;52.402;9.796;2023-03-18T11:26:51;100551.66;;;23.48;42.49
20368;BME280;10343;52.402;9.796;2023-03-18T11:29:22;100551.19;;;24.00;42.48
20368;BME280;10343;52.402;9.796;2023-03-18T11:31:53;100551.66;;;24.16;42.48
20368;BME280;10343;52.402;9.796;2023-03-18T11:34:28;100556.22;;;23.82;41.54
20368;BME280;10343;52.402;9.796;2023-03-18T11:36:58;100560.06;;;24.78;42.47
20368;BME280;10343;52.402;9.796;2023-03-18T11:39:33;100566.69;;;23.64;43.00
20368;BME280;10343;52.402;9.796;2023-03-18T11:42:16;100560.19;;;24.44;41.28
20368;BME280;10343;52.402;9.796;2023-03-18T11:44:45;100556.38;;;23.91;41.17
20368;BME280;10343;52.402;9.796;2023-03-18T11:47:18;100562.47;;;24.49;41.25
20368;BME280;10343;52.402;9.796;2023-03-18T11:49:51;100555.25;;;24.38;41.80
20368;BME280;10343;52.402;9.796;2023-03-18T11:55:16;100554.25;;;24.06;41.79
20368;BME280;10343;52.402;9.796;2023-03-18T11:58:06;100554.75;;;24.44;41.08
20368;BME280;10343;52.402;9.796;2023-03-18T12:00:48;100553.44;;;24.59;40.99
20368;BME280;10343;52.402;9.796;2023-03-18T12:03:58;100558.03;;;25.34;41.36
20368;BME280;10343;52.402;9.796;2023-03-18T12:06:37;100551.06;;;24.78;40.92
20368;BME280;10343;52.402;9.796;2023-03-18T12:09:16;100556.03;;;25.36;42.82
20368;BME280;10343;52.402;9.796;2023-03-18T12:11:59;100556.53;;;24.22;40.39
20368;BME280;10343;52.402;9.796;2023-03-18T12:14:36;100548.91;;;24.28;40.94
20368;BME280;10343;52.402;9.796;2023-03-18T12:17:18;100559.88;;;24.70;39.88
20368;BME280;10343;52.402;9.796;2023-03-18T12:20:02;100554.00;;;24.53;39.98
20368;BME280;10343;52.402;9.796;2023-03-18T12:25:54;100559.84;;;25.12;38.98
20368;BME280;10343;52.402;9.796;2023-03-18T12:28:31;100554.38;;;25.02;39.72
20368;BME280;10343;52.402;9.796;2023-03-18T12:31:20;100556.00;;;25.57;38.71
20368;BME280;10343;52.402;9.796;2023-03-18T12:33:55;100564.31;;;25.65;38.50
20368;BME280;10343;52.402;9.796;2023-03-18T12:36:32;100556.41;;;24.68;38.83
20368;BME280;10343;52.402;9.796;2023-03-18T12:39:29;100562.56;;;25.12;38.22
20368;BME280;10343;52.402;9.796;2023-03-18T12:42:02;100561.47;;;26.07;36.63
20368;BME280;10343;52.402;9.796;2023-03-18T12:44:52;100562.81;;;25.92;39.05
20368;BME280;10343;52.402;9.796;2023-03-18T12:47:27;100559.72;;;24.71;39.06
20368;BME280;10343;52.402;9.796;2023-03-18T12:50:01;100564.50;;;25.73;37.23
20368;BME280;10343;52.402;9.796;2023-03-18T12:52:36;100556.81;;;24.63;37.85
20368;BME280;10343;52.402;9.796;2023-03-18T12:55:14;100552.25;;;24.52;38.34
20368;BME280;10343;52.402;9.796;2023-03-18T12:57:46;100544.53;;;25.84;36.89
20368;BME280;10343;52.402;9.796;2023-03-18T13:00:20;100552.91;;;25.40;36.89
20368;BME280;10343;52.402;9.796;2023-03-18T13:02:55;100547.09;;;24.82;38.18
20368;BME280;10343;52.402;9.796;2023-03-18T13:05:37;100551.97;;;25.30;37.59
20368;BME280;10343;52.402;9.796;2023-03-18T13:08:44;100549.13;;;25.32;37.11
20368;BME280;10343;52.402;9.796;2023-03-18T13:14:16;100555.22;;;25.45;36.68
20368;BME280;10343;52.402;9.796;2023-03-18T13:16:48;100555.19;;;25.14;36.76
20368;BME280;10343;52.402;9.796;2023-03-18T13:19:17;100553.03;;;25.70;36.27
20368;BME280;10343;52.402;9.796;2023-03-18T13:21:48;100551.31;;;24.96;37.00
20368;BME280;10343;52.402;9.796;2023-03-18T13:24:46;100554.31;;;24.92;36.35
20368;BME280;10343;52.402;9.796;2023-03-18T13:27:49;100549.94;;;25.22;37.01
20368;BME280;10343;52.402;9.796;2023-03-18T13:30:27;100556.97;;;25.56;35.43
20368;BME280;10343;52.402;9.796;2023-03-18T13:33:20;100555.25;;;25.03;35.72
20368;BME280;10343;52.402;9.796;2023-03-18T13:36:17;100553.16;;;25.16;35.90
20368;BME280;10343;52.402;9.796;2023-03-18T13:38:58;100551.38;;;25.05;36.29
20368;BME280;10343;52.402;9.796;2023-03-18T13:41:40;100558.00;;;24.91;36.37
20368;BME280;10343;52.402;9.796;2023-03-18T13:44:18;100555.09;;;24.83;35.97
20368;BME280;10343;52.402;9.796;2023-03-18T13:46:58;100549.16;;;24.89;36.41
20368;BME280;10343;52.402;9.796;2023-03-18T13:49:30;100546.16;;;25.14;36.29